Time;durP1;ratioP1;P1;durP2;ratioP2;P2;SDS_P1;SDS_P2;PMS_P1;PMS_P2;Temp;Humidity;BMP_temperature;BMP_pressure;BME280_temperature;BME280_humidity;BME280_pressure;Samples;Min_cycle;Max_cycle;Signal;HPM_P1;HPM_P2
2024/02/26 00:01:36;;;;;;;3.38;1.98;;;;;;;8.58;100.00;99731.22;5287275;28;20402;-77
2024/02/26 00:04:08;;;;;;;5.22;2.13;;;;;;;8.56;100.00;99720.09;5287062;28;20039;-76
2024/02/26 00:06:42;;;;;;;3.42;2.28;;;;;;;8.50;100.00;99729.34;5286805;28;20568;-77
2024/02/26 00:09:14;;;;;;;4.65;2.10;;;;;;;8.45;100.00;99724.56;5285527;28;20039;-76
2024/02/26 00:11:46;;;;;;;5.32;2.80;;;;;;;8.48;100.00;99728.63;5287221;28;20043;-76
2024/02/26 00:14:18;;;;;;;4.03;2.15;;;;;;;8.45;100.00;99731.56;5286320;28;20028;-76
2024/02/26 00:16:50;;;;;;;4.25;2.42;;;;;;;8.50;100.00;99737.16;5285357;28;20492;-76
2024/02/26 00:19:22;;;;;;;4.90;2.58;;;;;;;8.52;100.00;99730.84;5283111;28;20024;-76
2024/02/26 00:21:55;;;;;;;4.47;2.53;;;;;;;8.47;100.00;99727.00;5283187;28;20039;-77
2024/02/26 00:24:27;;;;;;;4.38;2.38;;;;;;;8.47;100.00;99727.81;5284605;28;20043;-76
2024/02/26 00:26:59;;;;;;;4.22;2.30;;;;;;;8.44;100.00;99727.28;5287234;28;20034;-76
2024/02/26 00:29:32;;;;;;;5.82;2.53;;;;;;;8.39;100.00;99722.50;5285717;28;20126;-77
2024/02/26 00:32:04;;;;;;;4.68;2.58;;;;;;;8.44;100.00;99727.28;5287368;28;20043;-77
2024/02/26 00:34:36;;;;;;;4.60;2.20;;;;;;;8.36;100.00;99714.94;5286677;28;20047;-76
2024/02/26 00:37:08;;;;;;;4.22;2.42;;;;;;;8.46;100.00;99733.19;5284805;28;20024;-76
2024/02/26 00:39:40;;;;;;;5.60;2.30;;;;;;;8.45;100.00;99718.50;5283915;28;20523;-77
2024/02/26 00:42:12;;;;;;;5.25;2.35;;;;;;;8.43;100.00;99718.63;5286747;28;20020;-77
2024/02/26 00:44:44;;;;;;;3.72;2.30;;;;;;;8.45;100.00;99714.09;5287728;28;20042;-76
2024/02/26 00:47:16;;;;;;;3.78;2.33;;;;;;;8.42;100.00;99709.16;5284785;28;20032;-77
2024/02/26 00:49:47;;;;;;;5.25;2.05;;;;;;;8.45;100.00;99708.06;5279124;28;20032;-77
2024/02/26 00:52:19;;;;;;;3.05;1.92;;;;;;;8.44;100.00;99715.06;5281416;28;20032;-77
2024/02/26 00:54:51;;;;;;;4.65;2.33;;;;;;;8.32;100.00;99689.25;5286305;28;20065;-77
2024/02/26 00:57:23;;;;;;;3.15;2.00;;;;;;;8.39;100.00;99709.44;5285927;28;20043;-77
2024/02/26 00:59:56;;;;;;;5.57;2.33;;;;;;;8.35;100.00;99710.69;5282848;28;20046;-77
2024/02/26 01:02:28;;;;;;;3.00;1.90;;;;;;;8.32;100.00;99704.91;5285990;28;20047;-77
2024/02/26 01:05:00;;;;;;;5.10;2.50;;;;;;;8.30;100.00;99707.69;5285110;28;20400;-76
2024/02/26 01:07:35;;;;;;;4.07;2.20;;;;;;;8.31;100.00;99706.72;5284500;28;20032;-76
2024/02/26 01:10:07;;;;;;;3.47;1.90;;;;;;;8.26;100.00;99714.97;5284723;28;20773;-76
2024/02/26 01:12:39;;;;;;;3.25;2.15;;;;;;;8.28;100.00;99717.44;5286798;28;20055;-77
2024/02/26 01:15:11;;;;;;;3.63;2.10;;;;;;;8.28;100.00;99720.84;5285044;28;20040;-77
2024/02/26 01:17:43;;;;;;;3.50;2.40;;;;;;;8.19;100.00;99718.28;5284757;28;20458;-76
2024/02/26 01:20:15;;;;;;;3.05;1.73;;;;;;;8.19;100.00;99720.91;5283922;28;20038;-77
2024/02/26 01:22:47;;;;;;;3.17;2.15;;;;;;;8.20;100.00;99727.75;5283580;28;20035;-77
2024/02/26 01:25:19;;;;;;;3.70;2.30;;;;;;;8.16;100.00;99727.22;5283166;28;20872;-76
2024/02/26 01:27:51;;;;;;;3.47;2.30;;;;;;;8.18;100.00;99727.91;5280283;28;20157;-77
2024/02/26 01:30:23;;;;;;;2.97;2.00;;;;;;;8.16;100.00;99737.66;5285270;28;20038;-77
2024/02/26 01:32:54;;;;;;;4.15;2.45;;;;;;;8.12;100.00;99732.88;5283284;28;20469;-76
2024/02/26 01:35:26;;;;;;;2.95;1.95;;;;;;;8.14;100.00;99731.75;5284483;28;20028;-77
2024/02/26 01:37:58;;;;;;;4.03;2.38;;;;;;;8.09;100.00;99725.31;5281129;28;20036;-77
2024/02/26 01:40:30;;;;;;;3.72;1.98;;;;;;;8.08;100.00;99736.72;5285781;28;20039;-78
2024/02/26 01:43:02;;;;;;;4.60;2.22;;;;;;;8.11;100.00;99736.44;5283243;28;20027;-77
2024/02/26 01:45:34;;;;;;;4.35;2.15;;;;;;;8.11;100.00;99742.50;5280793;28;20088;-77
2024/02/26 01:48:06;;;;;;;4.50;1.85;;;;;;;8.12;100.00;99743.31;5283647;28;20038;-77
2024/02/26 01:50:40;;;;;;;4.10;2.33;;;;;;;8.16;100.00;99740.25;5284666;28;20512;-77
2024/02/26 01:53:12;;;;;;;3.38;2.30;;;;;;;8.10;100.00;99745.22;5284846;28;20055;-77
2024/02/26 01:55:44;;;;;;;4.40;2.30;;;;;;;8.14;100.00;99742.19;5282881;28;20033;-76
2024/02/26 01:58:16;;;;;;;2.63;1.67;;;;;;;8.12;100.00;99748.53;5283131;28;20292;-77
2024/02/26 02:00:49;;;;;;;2.97;2.20;;;;;;;8.12;100.00;99748.53;5281091;28;20036;-77
2024/02/26 02:03:22;;;;;;;2.67;1.95;;;;;;;8.10;100.00;99750.44;5281424;28;20020;-76
2024/02/26 02:05:54;;;;;;;4.67;2.00;;;;;;;8.08;100.00;99749.78;5284701;28;20549;-77
2024/02/26 02:08:27;;;;;;;4.15;2.25;;;;;;;8.05;100.00;99743.84;5285090;28;20493;-76
2024/02/26 02:10:59;;;;;;;3.05;2.30;;;;;;;8.05;100.00;99745.66;5281511;28;20396;-76
2024/02/26 02:13:31;;;;;;;2.60;1.63;;;;;;;8.07;100.00;99754.16;5282748;28;20873;-76
2024/02/26 02:16:04;;;;;;;4.25;2.00;;;;;;;8.05;100.00;99754.28;5284299;28;20039;-76
2024/02/26 02:18:36;;;;;;;;;;;;;;;8.64;100.00;99747.13;5283786;28;20036;-76
2024/02/26 02:21:08;;;;;;;2.88;1.63;;;;;;;8.09;100.00;99743.59;5283455;28;19938;-76
2024/02/26 02:23:40;;;;;;;3.10;1.80;;;;;;;8.00;100.00;99745.25;5261620;28;20039;-76
2024/02/26 02:26:13;;;;;;;3.97;2.00;;;;;;;8.01;100.00;99749.50;5283544;28;20024;-76
2024/02/26 02:28:46;;;;;;;4.25;2.40;;;;;;;7.88;100.00;99752.41;5284484;28;20036;-76
2024/02/26 02:31:19;;;;;;;3.30;2.45;;;;;;;7.93;100.00;99746.78;5285452;28;20031;-76
2024/02/26 02:33:51;;;;;;;3.17;1.80;;;;;;;7.86;100.00;99759.53;5283676;28;20036;-76
2024/02/26 02:36:23;;;;;;;3.10;2.20;;;;;;;7.84;100.00;99753.66;5281887;28;20043;-76
2024/02/26 02:38:54;;;;;;;3.47;2.10;;;;;;;7.82;100.00;99758.19;5287568;28;20036;-76
2024/02/26 02:41:29;;;;;;;5.43;2.10;;;;;;;7.78;100.00;99752.41;5287938;28;20027;-76
2024/02/26 02:44:02;;;;;;;3.20;2.03;;;;;;;7.78;100.00;99756.81;5283390;28;20047;-76
2024/02/26 02:46:35;;;;;;;4.53;2.03;;;;;;;7.81;100.00;99764.38;5287389;28;20028;-76
2024/02/26 02:49:10;;;;;;;3.53;2.10;;;;;;;7.82;100.00;99766.00;5287138;28;20032;-76
2024/02/26 02:51:42;;;;;;;4.40;2.60;;;;;;;7.70;100.00;99764.50;5287880;28;20036;-76
2024/02/26 02:54:14;;;;;;;7.25;2.30;;;;;;;7.74;100.00;99769.31;5286921;28;20034;-77
2024/02/26 02:56:46;;;;;;;3.33;2.22;;;;;;;7.70;100.00;99756.69;5288913;28;20052;-77
2024/02/26 02:59:18;;;;;;;3.72;2.45;;;;;;;7.73;100.00;99759.03;5270820;28;20047;-77
2024/02/26 03:01:50;;;;;;;3.45;2.33;;;;;;;7.72;100.00;99762.56;5287074;28;20036;-76
2024/02/26 03:04:22;;;;;;;3.83;2.35;;;;;;;7.72;100.00;99760.78;5286500;28;20036;-77
2024/02/26 03:06:53;;;;;;;3.92;2.30;;;;;;;7.68;100.00;99759.41;5286348;28;20148;-77
2024/02/26 03:09:25;;;;;;;3.90;2.35;;;;;;;7.64;100.00;99758.03;5286084;28;21213;-77
2024/02/26 03:11:57;;;;;;;2.88;2.30;;;;;;;7.63;100.00;99753.81;5285699;28;20032;-77
2024/02/26 03:14:29;;;;;;;4.10;2.10;;;;;;;7.65;100.00;99753.66;5279716;28;20042;-77
2024/02/26 03:17:01;;;;;;;2.92;1.98;;;;;;;7.63;100.00;99763.41;5285567;28;20040;-77
2024/02/26 03:19:33;;;;;;;3.33;1.85;;;;;;;7.62;100.00;99766.97;5285084;28;20032;-77
2024/02/26 03:22:05;;;;;;;2.83;1.95;;;;;;;7.63;100.00;99763.41;5287539;28;20020;-77
2024/02/26 03:24:37;;;;;;;3.92;2.00;;;;;;;7.63;100.00;99763.41;5287665;28;20038;-77
2024/02/26 03:27:09;;;;;;;2.95;2.22;;;;;;;7.62;100.00;99765.19;5268298;28;20040;-77
2024/02/26 03:29:41;;;;;;;3.60;2.33;;;;;;;7.59;100.00;99769.88;5287022;28;20028;-77
2024/02/26 03:32:13;;;;;;;3.15;1.98;;;;;;;7.59;100.00;99767.25;5285630;28;20032;-77
2024/02/26 03:34:45;;;;;;;3.72;2.20;;;;;;;7.52;100.00;99767.78;5288123;28;20032;-77
2024/02/26 03:37:17;;;;;;;2.60;2.10;;;;;;;7.50;100.00;99761.91;5285931;28;21285;-77
2024/02/26 03:39:49;;;;;;;3.20;2.45;;;;;;;7.50;100.00;99764.50;5287937;28;20043;-77
2024/02/26 03:42:21;;;;;;;3.03;2.20;;;;;;;7.52;100.00;99769.56;5286580;28;20028;-77
2024/02/26 03:44:53;;;;;;;3.72;2.03;;;;;;;7.50;100.00;99768.88;5286003;28;20024;-77
2024/02/26 03:47:25;;;;;;;2.90;2.10;;;;;;;7.48;100.00;99765.59;5287054;28;20031;-77
2024/02/26 03:49:59;;;;;;;3.65;1.98;;;;;;;7.45;100.00;99755.44;5285700;28;20108;-77
2024/02/26 03:52:30;;;;;;;3.65;2.30;;;;;;;7.46;100.00;99767.50;5286027;28;20050;-77
2024/02/26 03:55:02;;;;;;;2.92;2.15;;;;;;;7.47;100.00;99771.78;5286552;28;20044;-77
2024/02/26 03:57:35;;;;;;;3.25;2.10;;;;;;;7.48;100.00;99768.22;5286047;28;20048;-77
2024/02/26 04:00:08;;;;;;;3.55;2.30;;;;;;;7.49;100.00;99764.63;5287762;28;20028;-77
2024/02/26 04:02:40;;;;;;;3.20;2.28;;;;;;;7.48;100.00;99758.59;5288408;28;20564;-77
2024/02/26 04:05:13;;;;;;;2.58;2.22;;;;;;;7.43;100.00;99765.19;5289215;28;20043;-77
2024/02/26 04:07:45;;;;;;;3.45;1.95;;;;;;;7.41;100.00;99761.88;5288642;28;20477;-77
2024/02/26 04:10:17;;;;;;;3.63;2.20;;;;;;;7.39;100.00;99762.03;5289342;28;20051;-77
2024/02/26 04:12:49;;;;;;;3.90;2.35;;;;;;;7.40;100.00;99768.06;5287692;28;20031;-77
2024/02/26 04:15:20;;;;;;;2.72;1.83;;;;;;;7.39;100.00;99771.66;5285517;28;21718;-77
2024/02/26 04:17:52;;;;;;;2.85;2.20;;;;;;;7.41;100.00;99770.53;5287564;28;20059;-77
2024/02/26 04:20:24;;;;;;;3.10;2.03;;;;;;;7.42;100.00;99766.94;5289083;28;20038;-77
2024/02/26 04:22:56;;;;;;;3.50;2.08;;;;;;;7.40;100.00;99766.28;5288426;28;20028;-77
2024/02/26 04:25:28;;;;;;;2.75;1.90;;;;;;;7.46;100.00;99762.28;5287749;28;20047;-77
2024/02/26 04:28:00;;;;;;;2.65;2.13;;;;;;;7.48;100.00;99768.22;5284991;28;20047;-77
2024/02/26 04:30:32;;;;;;;2.35;1.65;;;;;;;7.46;100.00;99773.56;5289148;28;20040;-77
2024/02/26 04:33:04;;;;;;;2.75;2.03;;;;;;;7.45;100.00;99776.28;5289102;28;20898;-77
2024/02/26 04:35:36;;;;;;;3.53;1.70;;;;;;;7.44;100.00;99783.28;5287443;28;20028;-77
2024/02/26 04:38:08;;;;;;;3.70;2.10;;;;;;;7.41;100.00;99786.16;5285982;28;20039;-77
2024/02/26 04:40:40;;;;;;;3.25;2.10;;;;;;;7.38;100.00;99783.00;5288546;28;20036;-77
2024/02/26 04:43:12;;;;;;;4.25;2.25;;;;;;;7.42;100.00;99782.59;5287316;28;20210;-77
2024/02/26 04:45:43;;;;;;;2.78;1.92;;;;;;;7.41;100.00;99790.56;5284770;28;20824;-77
2024/02/26 04:48:15;;;;;;;4.85;2.67;;;;;;;7.38;100.00;99793.41;5288686;28;20034;-77
2024/02/26 04:50:47;;;;;;;2.92;2.08;;;;;;;7.42;100.00;99794.78;5288331;28;20055;-77
2024/02/26 04:53:19;;;;;;;3.80;1.83;;;;;;;7.39;100.00;99803.72;5287068;28;20032;-77
2024/02/26 04:55:51;;;;;;;3.65;2.13;;;;;;;7.42;100.00;99800.81;5285883;28;20044;-77
2024/02/26 04:58:23;;;;;;;3.20;2.38;;;;;;;7.39;100.00;99803.72;5285657;28;20036;-77
2024/02/26 05:00:55;;;;;;;2.60;2.20;;;;;;;7.42;100.00;99798.22;5283300;28;20050;-77
2024/02/26 05:03:27;;;;;;;2.70;2.38;;;;;;;7.40;100.00;99797.56;5279900;28;20035;-77
2024/02/26 05:06:00;;;;;;;3.72;2.53;;;;;;;7.18;100.00;99805.59;5265673;28;20051;-77
2024/02/26 05:08:33;;;;;;;2.40;2.10;;;;;;;6.91;100.00;99790.59;5268019;28;20482;-77
2024/02/26 05:11:08;;;;;;;2.65;2.30;;;;;;;6.89;100.00;99795.91;5267898;28;20040;-77
2024/02/26 05:13:41;;;;;;;3.92;2.20;;;;;;;7.26;100.00;99800.53;5284543;28;20027;-76
2024/02/26 05:16:13;;;;;;;3.13;2.07;;;;;;;7.27;100.00;99794.38;5287335;28;20050;-77
2024/02/26 05:18:44;;;;;;;2.83;2.28;;;;;;;7.31;100.00;99793.13;5284462;28;20027;-77
2024/02/26 05:21:16;;;;;;;2.75;2.15;;;;;;;7.29;100.00;99797.66;5285326;28;20024;-77
2024/02/26 05:23:48;;;;;;;3.42;2.20;;;;;;;7.24;100.00;99805.91;5280920;28;20147;-77
2024/02/26 05:26:21;;;;;;;2.80;2.08;;;;;;;7.29;100.00;99805.47;5287831;28;20035;-77
2024/02/26 05:28:53;;;;;;;2.28;1.77;;;;;;;7.31;100.00;99798.34;5285436;28;20489;-77
2024/02/26 05:31:26;;;;;;;3.38;2.00;;;;;;;7.28;100.00;99809.88;5284332;28;20039;-77
2024/02/26 05:33:58;;;;;;;2.67;1.80;;;;;;;7.31;100.00;99799.19;5284857;28;20059;-77
2024/02/26 05:36:33;;;;;;;2.80;1.60;;;;;;;7.30;100.00;99820.16;5283504;28;20047;-77
2024/02/26 05:39:05;;;;;;;3.10;2.00;;;;;;;7.26;100.00;99816.16;5284359;28;20561;-77
2024/02/26 05:41:36;;;;;;;3.53;2.28;;;;;;;7.31;100.00;99816.56;5286899;28;20119;-77
2024/02/26 05:44:10;;;;;;;2.83;1.77;;;;;;;7.34;100.00;99833.75;5284900;28;20036;-77
2024/02/26 05:46:42;;;;;;;;;;;;;;;7.96;100.00;99833.38;5267837;28;20383;-77
2024/02/26 05:49:13;;;;;;;2.55;1.70;;;;;;;7.43;100.00;99830.34;5285129;28;19923;-77
2024/02/26 05:51:45;;;;;;;3.22;1.85;;;;;;;7.37;100.00;99841.28;5285706;28;20050;-77
2024/02/26 05:54:17;;;;;;;2.97;2.03;;;;;;;7.37;100.00;99838.69;5280328;28;20024;-78
2024/02/26 05:56:49;;;;;;;3.08;2.40;;;;;;;7.40;100.00;99839.25;5286587;28;20056;-77
2024/02/26 05:59:21;;;;;;;3.70;2.40;;;;;;;7.37;100.00;99851.72;5285318;28;20024;-77
2024/02/26 06:01:53;;;;;;;2.83;1.92;;;;;;;7.34;100.00;99846.75;5284987;28;20032;-77
2024/02/26 06:04:25;;;;;;;2.97;2.08;;;;;;;7.25;100.00;99849.22;5285429;28;20021;-77
2024/02/26 06:06:57;;;;;;;3.03;2.42;;;;;;;7.25;100.00;99856.22;5283748;28;20949;-77
2024/02/26 06:09:29;;;;;;;2.78;2.10;;;;;;;7.31;100.00;99863.47;5285768;28;20059;-77
2024/02/26 06:12:01;;;;;;;3.83;2.70;;;;;;;7.30;100.00;99865.25;5285599;28;20039;-77
2024/02/26 06:14:32;;;;;;;3.30;2.22;;;;;;;7.26;100.00;99863.88;5292726;28;20031;-77
2024/02/26 06:17:04;;;;;;;3.30;2.17;;;;;;;7.29;100.00;99873.22;5291368;28;20073;-77
2024/02/26 06:19:36;;;;;;;3.60;2.20;;;;;;;7.20;100.00;99859.22;5289036;28;20095;-77
2024/02/26 06:22:08;;;;;;;3.83;2.00;;;;;;;7.36;100.00;99878.72;5283399;28;20036;-78
2024/02/26 06:24:40;;;;;;;3.78;2.50;;;;;;;7.34;100.00;99881.47;5290124;28;20031;-77
2024/02/26 06:27:14;;;;;;;3.60;2.22;;;;;;;7.29;100.00;99875.81;5293921;28;20096;-80
2024/02/26 06:29:45;;;;;;;2.75;2.20;;;;;;;7.37;100.00;99890.78;5291199;28;20043;-77
2024/02/26 06:32:17;;;;;;;5.32;2.33;;;;;;;7.36;100.00;99887.38;5292525;28;20373;-76
2024/02/26 06:34:49;;;;;;;2.95;2.30;;;;;;;7.34;100.00;99889.28;5291777;28;20032;-76
2024/02/26 06:37:21;;;;;;;3.33;2.20;;;;;;;7.30;100.00;99896.53;5290127;28;20073;-77
2024/02/26 06:39:53;;;;;;;4.65;2.70;;;;;;;7.28;100.00;99902.84;5287948;28;20073;-76
2024/02/26 06:42:25;;;;;;;3.10;2.38;;;;;;;7.25;100.00;99900.50;5294075;28;20073;-77
2024/02/26 06:44:57;;;;;;;6.13;3.03;;;;;;;7.34;100.00;99909.28;5290160;28;20075;-77
2024/02/26 06:47:29;;;;;;;3.88;2.90;;;;;;;7.27;100.00;99906.38;5293340;28;20044;-76
2024/02/26 06:50:01;;;;;;;3.58;2.80;;;;;;;7.25;100.00;99900.50;5288748;28;20039;-77
2024/02/26 06:52:32;;;;;;;3.97;3.17;;;;;;;7.26;100.00;99904.75;5289372;28;20039;-77
2024/02/26 06:55:07;;;;;;;4.65;3.60;;;;;;;7.27;100.00;99914.19;5292842;28;20032;-77
2024/02/26 06:57:39;;;;;;;4.32;3.28;;;;;;;7.26;100.00;99912.56;5293101;28;20047;-77
2024/02/26 07:00:16;;;;;;;4.25;3.00;;;;;;;7.24;100.00;99920.53;5290484;28;20046;-77
2024/02/26 07:02:48;;;;;;;4.50;3.50;;;;;;;7.24;100.00;99924.91;5290500;28;20032;-77
2024/02/26 07:05:20;;;;;;;3.55;3.20;;;;;;;7.16;100.00;99915.16;5290993;28;20129;-76
2024/02/26 07:07:52;;;;;;;4.85;3.63;;;;;;;7.20;100.00;99931.34;5286190;28;20060;-77
2024/02/26 07:10:24;;;;;;;3.67;3.17;;;;;;;7.18;100.00;99938.44;5290425;28;20036;-77
2024/02/26 07:12:55;;;;;;;5.88;4.00;;;;;;;7.14;100.00;99940.47;5290160;28;20028;-77
2024/02/26 07:15:28;;;;;;;3.70;3.35;;;;;;;7.16;100.00;99940.34;5286307;28;20056;-76
2024/02/26 07:18:03;;;;;;;4.50;3.20;;;;;;;7.15;100.00;99943.91;5290493;28;22148;-77
2024/02/26 07:20:34;;;;;;;5.35;3.80;;;;;;;7.14;100.00;99950.09;5291163;28;20028;-77
2024/02/26 07:23:06;;;;;;;4.13;3.30;;;;;;;7.19;100.00;99953.13;5289525;28;20033;-77
2024/02/26 07:25:38;;;;;;;4.25;3.72;;;;;;;7.16;100.00;99950.75;5291110;28;20036;-76
2024/02/26 07:28:10;;;;;;;4.85;4.00;;;;;;;7.14;100.00;99955.28;5279160;28;20031;-76
2024/02/26 07:30:42;;;;;;;4.22;3.53;;;;;;;7.06;100.00;99954.16;5283409;28;20051;-76
2024/02/26 07:33:14;;;;;;;5.45;3.50;;;;;;;7.13;100.00;99964.91;5288190;28;20036;-77
2024/02/26 07:35:46;;;;;;;3.22;2.90;;;;;;;7.10;100.00;99975.56;5290350;28;20039;-77
2024/02/26 07:38:18;;;;;;;3.30;2.78;;;;;;;7.14;100.00;99974.34;5283367;28;20067;-77
2024/02/26 07:40:50;;;;;;;3.47;2.92;;;;;;;7.15;100.00;99975.16;5277568;28;20122;-76
2024/02/26 07:43:22;;;;;;;3.50;3.20;;;;;;;7.04;100.00;99969.06;5285863;28;20134;-77
2024/02/26 07:45:54;;;;;;;3.35;3.05;;;;;;;7.19;100.00;99981.78;5284818;28;20039;-77
2024/02/26 07:48:26;;;;;;;6.32;3.50;;;;;;;7.14;100.00;99976.94;5278319;28;20035;-77
2024/02/26 07:50:59;;;;;;;4.72;3.47;;;;;;;7.10;100.00;99977.34;5285982;28;20027;-77
2024/02/26 07:53:31;;;;;;;3.88;3.22;;;;;;;7.04;100.00;99976.88;5268233;28;20044;-76
2024/02/26 07:56:03;;;;;;;3.28;2.83;;;;;;;7.18;100.00;100001.78;5288322;28;20810;-76
2024/02/26 07:58:35;;;;;;;4.78;2.72;;;;;;;7.14;100.00;99996.97;5286039;28;20046;-76
2024/02/26 08:01:07;;;;;;;4.35;2.88;;;;;;;7.08;100.00;99998.28;5287933;28;20036;-76
2024/02/26 08:03:39;;;;;;;3.33;2.92;;;;;;;7.10;100.00;100001.59;5283197;28;20034;-76
2024/02/26 08:06:11;;;;;;;3.95;2.83;;;;;;;7.15;100.00;100009.03;5284395;28;20039;-77
2024/02/26 08:08:43;;;;;;;4.20;2.97;;;;;;;7.10;100.00;100013.81;5283598;28;20024;-77
2024/02/26 08:11:15;;;;;;;4.93;2.70;;;;;;;7.15;100.00;100019.44;5288130;28;20024;-76
2024/02/26 08:13:47;;;;;;;4.90;3.00;;;;;;;7.11;100.00;100015.44;5267708;28;20044;-76
2024/02/26 08:16:19;;;;;;;3.50;2.58;;;;;;;7.18;100.00;100025.22;5285234;28;20036;-77
2024/02/26 08:18:52;;;;;;;4.22;2.67;;;;;;;7.13;100.00;100024.81;5284639;28;20034;-76
2024/02/26 08:21:23;;;;;;;3.15;2.85;;;;;;;7.18;100.00;100029.63;5288351;28;20604;-77
2024/02/26 08:23:55;;;;;;;3.17;2.80;;;;;;;7.14;100.00;100033.44;5287640;28;20115;-76
2024/02/26 08:26:27;;;;;;;3.33;2.65;;;;;;;7.18;100.00;100034.81;5287234;28;20135;-77
2024/02/26 08:28:59;;;;;;;3.15;2.63;;;;;;;7.17;100.00;100041.81;5284204;28;20043;-77
2024/02/26 08:31:31;;;;;;;2.88;2.50;;;;;;;7.21;100.00;100045.81;5287455;28;20035;-77
2024/02/26 08:34:04;;;;;;;3.53;2.65;;;;;;;7.26;100.00;100043.66;5287079;28;20032;-76
2024/02/26 08:36:36;;;;;;;4.35;3.08;;;;;;;7.31;100.00;100048.47;5290591;28;20036;-76
2024/02/26 08:39:08;;;;;;;5.60;2.88;;;;;;;7.28;100.00;100049.56;5286970;28;20381;-76
2024/02/26 08:41:40;;;;;;;3.92;2.72;;;;;;;7.29;100.00;100056.41;5288559;28;20046;-76
2024/02/26 08:44:12;;;;;;;4.57;2.95;;;;;;;7.28;100.00;100054.78;5289302;28;20393;-76
2024/02/26 08:46:45;;;;;;;4.03;3.45;;;;;;;7.30;100.00;100059.84;5287961;28;20028;-76
2024/02/26 08:49:17;;;;;;;3.95;3.35;;;;;;;7.31;100.00;100061.50;5288338;28;20830;-77
2024/02/26 08:51:49;;;;;;;4.03;3.60;;;;;;;7.33;100.00;100072.63;5287828;28;20042;-77
2024/02/26 08:54:21;;;;;;;3.90;3.17;;;;;;;7.30;100.00;100073.69;5288339;28;20020;-76
2024/02/26 08:56:53;;;;;;;4.03;3.42;;;;;;;7.37;100.00;100071.41;5289134;28;20047;-77
2024/02/26 08:59:25;;;;;;;5.25;3.33;;;;;;;7.37;100.00;100073.19;5288128;28;20038;-76
2024/02/26 09:01:57;;;;;;;4.18;3.53;;;;;;;7.38;100.00;100085.25;5287816;28;20047;-76
2024/02/26 09:04:29;;;;;;;5.28;3.90;;;;;;;7.39;100.00;100087.75;5288233;28;20119;-76
2024/02/26 09:07:02;;;;;;;5.85;3.83;;;;;;;7.28;100.00;100078.22;5286154;28;20067;-76
2024/02/26 09:09:33;;;;;;;4.45;4.05;;;;;;;7.41;100.00;100095.44;5286687;28;20042;-76
2024/02/26 09:12:06;;;;;;;6.05;4.20;;;;;;;7.36;100.00;100101.03;5287901;28;20032;-76
2024/02/26 09:14:37;;;;;;;5.72;3.47;;;;;;;7.43;100.00;100107.41;5287085;28;20040;-76
2024/02/26 09:17:09;;;;;;;4.75;3.47;;;;;;;7.40;100.00;100094.63;5286449;28;20077;-77
2024/02/26 09:19:42;;;;;;;3.95;3.55;;;;;;;7.33;100.00;100101.28;5287805;28;20037;-76
2024/02/26 09:22:14;;;;;;;4.05;3.58;;;;;;;7.42;100.00;100104.91;5288838;28;20028;-76
2024/02/26 09:24:46;;;;;;;3.83;3.30;;;;;;;7.41;100.00;100117.09;5286346;28;20040;-76
2024/02/26 09:27:18;;;;;;;4.28;3.70;;;;;;;7.40;100.00;100125.06;5286276;28;20036;-76
2024/02/26 09:29:50;;;;;;;3.88;3.45;;;;;;;7.37;100.00;100109.69;5285203;28;20028;-76
2024/02/26 09:32:24;;;;;;;4.68;3.67;;;;;;;7.43;100.00;100124.81;5286963;28;20055;-76
2024/02/26 09:34:57;;;;;;;4.80;4.13;;;;;;;7.44;100.00;100124.69;5265445;28;20043;-76
2024/02/26 09:37:29;;;;;;;4.53;3.97;;;;;;;7.49;100.00;100130.31;5283076;28;20740;-76
2024/02/26 09:40:01;;;;;;;4.75;3.67;;;;;;;7.51;100.00;100131.03;5284679;28;20084;-76
2024/02/26 09:42:34;;;;;;;4.38;3.97;;;;;;;7.53;100.00;100128.28;5264761;28;20051;-75
2024/02/26 09:45:12;;;;;;;4.45;4.00;;;;;;;7.61;100.00;100130.25;5282214;28;20032;-76
2024/02/26 09:47:44;;;;;;;6.60;3.92;;;;;;;7.42;100.00;100141.38;5283327;28;20039;-75
2024/02/26 09:50:22;;;;;;;5.03;4.15;;;;;;;7.60;100.00;100147.69;5264233;28;20040;-75
2024/02/26 09:52:57;;;;;;;6.10;4.65;;;;;;;7.48;100.00;100152.13;5283041;28;20028;-75
2024/02/26 09:55:29;;;;;;;5.28;4.50;;;;;;;7.49;100.00;100153.78;5265992;28;20054;-76
2024/02/26 09:58:04;;;;;;;5.85;4.68;;;;;;;7.48;100.00;100159.13;5286141;28;20465;-75
2024/02/26 10:00:38;;;;;;;6.53;5.13;;;;;;;7.54;100.00;100159.47;5285542;28;20507;-75
2024/02/26 10:03:15;;;;;;;5.47;4.97;;;;;;;7.62;100.00;100169.25;5275688;28;20039;-75
2024/02/26 10:05:50;;;;;;;6.07;5.32;;;;;;;7.62;100.00;100171.03;5283988;28;20366;-75
2024/02/26 10:08:23;;;;;;;5.68;5.18;;;;;;;7.61;100.00;100180.59;5279793;28;20036;-75
2024/02/26 10:10:56;;;;;;;6.20;5.60;;;;;;;7.46;100.00;100161.88;5284084;28;20472;-74
2024/02/26 10:13:28;;;;;;;5.85;5.15;;;;;;;7.61;100.00;100187.59;5285094;28;20048;-74
2024/02/26 10:16:03;;;;;;;6.10;5.45;;;;;;;7.52;100.00;100190.03;5282685;28;20134;-75
2024/02/26 10:18:48;;;;;;;6.35;5.60;;;;;;;7.73;100.00;100197.03;5283578;28;20485;-74
2024/02/26 10:21:21;;;;;;;6.65;6.05;;;;;;;7.48;100.00;100209.47;5281973;28;20020;-74
2024/02/26 10:23:54;;;;;;;6.60;6.00;;;;;;;7.48;100.00;100200.84;5284944;28;20032;-74
2024/02/26 10:26:25;;;;;;;6.63;5.90;;;;;;;7.51;100.00;100211.00;5285264;28;20474;-74
2024/02/26 10:29:00;;;;;;;6.22;5.63;;;;;;;7.51;100.00;100209.22;5283198;28;20038;-75
2024/02/26 10:31:32;;;;;;;6.43;5.82;;;;;;;7.49;100.00;100205.91;5279645;28;20042;-74
2024/02/26 10:34:04;;;;;;;6.75;6.05;;;;;;;7.50;100.00;100215.41;5282758;28;20226;-75
2024/02/26 10:36:36;;;;;;;7.55;6.75;;;;;;;7.54;100.00;100216.81;5284805;28;20359;-74
2024/02/26 10:39:08;;;;;;;6.78;6.10;;;;;;;7.52;100.00;100236.13;5283607;28;20036;-75
2024/02/26 10:41:44;;;;;;;7.80;7.00;;;;;;;7.66;100.00;100232.38;5283494;28;20589;-74
2024/02/26 10:44:16;;;;;;;9.93;7.13;;;;;;;7.54;100.00;100235.03;5284438;28;20032;-74
2024/02/26 10:46:51;;;;;;;7.20;6.50;;;;;;;7.62;100.00;100246.63;5285766;28;20081;-74
2024/02/26 10:49:23;;;;;;;7.35;6.65;;;;;;;7.56;100.00;100251.38;5287061;28;20047;-74
2024/02/26 10:51:57;;;;;;;9.45;7.57;;;;;;;7.63;100.00;100253.50;5286237;28;20050;-74
2024/02/26 10:54:29;;;;;;;7.97;7.18;;;;;;;7.47;100.00;100246.91;5284356;28;20788;-74
2024/02/26 10:57:03;;;;;;;9.17;7.27;;;;;;;7.65;100.00;100262.00;5275869;28;20997;-75
2024/02/26 10:59:36;;;;;;;;;;;;;;;8.18;100.00;100269.75;5266365;28;20282;-75
2024/02/26 11:02:10;;;;;;;7.95;6.45;;;;;;;7.76;100.00;100274.97;5267017;28;20366;-74
2024/02/26 11:04:42;;;;;;;9.23;8.10;;;;;;;7.68;100.00;100280.81;5268369;28;20039;-75
2024/02/26 11:07:15;;;;;;;8.25;7.28;;;;;;;7.61;100.00;100273.63;5266024;28;20049;-75
2024/02/26 11:09:51;;;;;;;8.88;7.93;;;;;;;7.69;100.00;100273.81;5263251;28;20037;-75
2024/02/26 11:12:25;;;;;;;8.63;7.22;;;;;;;7.64;100.00;100282.03;5267774;28;20048;-75
2024/02/26 11:14:58;;;;;;;8.52;7.63;;;;;;;7.60;100.00;100288.44;5267125;28;20031;-75
2024/02/26 11:17:31;;;;;;;8.60;7.70;;;;;;;7.51;100.00;100270.97;5266829;28;20727;-75
2024/02/26 11:20:05;;;;;;;8.35;7.55;;;;;;;7.65;100.00;100285.47;5267381;28;20043;-74
2024/02/26 11:22:37;;;;;;;9.15;8.07;;;;;;;7.61;100.00;100284.06;5266524;28;20032;-75
2024/02/26 11:25:11;;;;;;;8.93;7.90;;;;;;;7.65;100.00;100288.06;5262369;28;20090;-75
2024/02/26 11:27:48;;;;;;;8.43;7.53;;;;;;;7.66;100.00;100298.38;5265253;28;20474;-75
2024/02/26 11:30:22;;;;;;;10.43;8.10;;;;;;;7.61;100.00;100289.28;5267323;28;20044;-75
2024/02/26 11:32:54;;;;;;;;;;;;;;;8.24;100.00;100290.13;5265857;28;20067;-75
2024/02/26 11:35:26;;;;;;;8.65;7.75;;;;;;;7.71;100.00;100293.63;5248838;28;19912;-75
2024/02/26 11:38:00;;;;;;;9.10;7.90;;;;;;;7.75;100.00;100295.03;5265573;28;20056;-74
2024/02/26 11:40:38;;;;;;;9.18;8.15;;;;;;;7.73;100.00;100296.94;5266677;28;20043;-75
2024/02/26 11:43:10;;;;;;;9.57;8.23;;;;;;;7.70;100.00;100291.16;5266648;28;20047;-75
2024/02/26 11:45:43;;;;;;;9.55;8.50;;;;;;;7.65;100.00;100299.34;5267011;28;20036;-75
2024/02/26 11:48:18;;;;;;;9.93;8.93;;;;;;;7.69;100.00;100279.91;5265862;28;20505;-75
2024/02/26 11:50:54;;;;;;;11.88;9.55;;;;;;;7.70;100.00;100285.94;5266465;28;20028;-74
2024/02/26 11:53:31;;;;;;;10.20;9.18;;;;;;;7.83;100.00;100298.78;5266580;28;20486;-74
2024/02/26 11:56:24;;;;;;;12.05;10.05;;;;;;;7.96;100.00;100292.44;5263134;28;20056;-74